Sweet Water, Illinois
Current Conditions -  °F | °C
As of 11:55 AM on Friday 24 Oct 2014 (Local Time) from KPPQ Reporting Station
Broken Clouds Broken Clouds  
Wind Chill: 62°   Ceiling: 800
Heat Index: 62°   Visibility: 7mi
Dew Point: 57°   Wind: 3mph
Humidity: 84%   Direction: 220°SW
Pressure: 30.1"   Gusts: NA
Location:  39.7431°N, 90.5444°W
Report Text: KPPQ 241655Z AUTO 22003KT 7SM BKN008 17/14 A3010 RMK AO2 T01670140
Loading
Personal Weather Stations






























Interactive Weather Map
Tropical Storm Tracking
New forecast layout! Learn more

10-Day Weather Forecast

Advertisements
Track Severe Weather on mobile